sensor_id;sensor_type;location;lat;lon;timestamp;temperature;humidity
63313;DHT22;49442;45.640;13.812;2023-02-26T00:08:42;22.60;89.80
63313;DHT22;49442;45.640;13.812;2023-02-26T00:11:09;22.60;89.90
63313;DHT22;49442;45.640;13.812;2023-02-26T00:13:36;22.60;89.70
63313;DHT22;49442;45.640;13.812;2023-02-26T00:16:02;22.60;90.00
63313;DHT22;49442;45.640;13.812;2023-02-26T00:18:29;22.50;89.80
63313;DHT22;49442;45.640;13.812;2023-02-26T00:20:55;22.50;89.80
63313;DHT22;49442;45.640;13.812;2023-02-26T00:23:21;22.50;90.00
63313;DHT22;49442;45.640;13.812;2023-02-26T00:25:48;22.50;90.00
63313;DHT22;49442;45.640;13.812;2023-02-26T00:28:14;22.50;89.50
63313;DHT22;49442;45.640;13.812;2023-02-26T00:30:40;22.50;89.40
63313;DHT22;49442;45.640;13.812;2023-02-26T00:33:06;22.50;89.60
63313;DHT22;49442;45.640;13.812;2023-02-26T00:35:32;22.50;89.10
63313;DHT22;49442;45.640;13.812;2023-02-26T00:38:09;22.40;89.50
63313;DHT22;49442;45.640;13.812;2023-02-26T00:43:20;22.40;90.20
63313;DHT22;49442;45.640;13.812;2023-02-26T00:54:18;22.40;89.30
63313;DHT22;49442;45.640;13.812;2023-02-26T00:56:45;22.40;89.50
63313;DHT22;49442;45.640;13.812;2023-02-26T00:59:10;22.40;89.70
63313;DHT22;49442;45.640;13.812;2023-02-26T01:01:36;22.30;88.70
63313;DHT22;49442;45.640;13.812;2023-02-26T01:04:02;22.30;89.70
63313;DHT22;49442;45.640;13.812;2023-02-26T01:06:31;22.30;90.10
63313;DHT22;49442;45.640;13.812;2023-02-26T01:11:30;22.30;89.20
63313;DHT22;49442;45.640;13.812;2023-02-26T01:13:55;22.30;89.20
63313;DHT22;49442;45.640;13.812;2023-02-26T01:16:26;22.30;89.40
63313;DHT22;49442;45.640;13.812;2023-02-26T01:19:01;22.20;89.80
63313;DHT22;49442;45.640;13.812;2023-02-26T01:21:35;22.20;88.90
63313;DHT22;49442;45.640;13.812;2023-02-26T01:24:05;22.20;88.00
63313;DHT22;49442;45.640;13.812;2023-02-26T01:26:33;22.20;88.90
63313;DHT22;49442;45.640;13.812;2023-02-26T01:28:58;22.20;88.50
63313;DHT22;49442;45.640;13.812;2023-02-26T01:31:51;22.20;89.50
63313;DHT22;49442;45.640;13.812;2023-02-26T01:40:27;22.20;88.80
63313;DHT22;49442;45.640;13.812;2023-02-26T01:42:57;22.10;89.20
63313;DHT22;49442;45.640;13.812;2023-02-26T01:45:33;22.10;89.00
63313;DHT22;49442;45.640;13.812;2023-02-26T01:48:04;22.10;88.50
63313;DHT22;49442;45.640;13.812;2023-02-26T01:50:31;22.10;89.00
63313;DHT22;49442;45.640;13.812;2023-02-26T01:53:19;22.10;86.80
63313;DHT22;49442;45.640;13.812;2023-02-26T01:55:48;22.10;88.40
63313;DHT22;49442;45.640;13.812;2023-02-26T01:58:14;22.10;88.40
63313;DHT22;49442;45.640;13.812;2023-02-26T02:00:41;22.10;89.00
63313;DHT22;49442;45.640;13.812;2023-02-26T02:03:07;22.00;88.90
63313;DHT22;49442;45.640;13.812;2023-02-26T02:05:40;22.00;87.90
63313;DHT22;49442;45.640;13.812;2023-02-26T02:08:07;22.00;87.80
63313;DHT22;49442;45.640;13.812;2023-02-26T02:10:33;22.00;88.40
63313;DHT22;49442;45.640;13.812;2023-02-26T02:15:45;22.00;88.20
63313;DHT22;49442;45.640;13.812;2023-02-26T02:18:23;22.00;88.80
63313;DHT22;49442;45.640;13.812;2023-02-26T02:24:00;22.00;88.50
63313;DHT22;49442;45.640;13.812;2023-02-26T02:34:52;21.90;87.70
63313;DHT22;49442;45.640;13.812;2023-02-26T02:37:28;21.90;87.90
63313;DHT22;49442;45.640;13.812;2023-02-26T02:40:13;21.80;87.90
63313;DHT22;49442;45.640;13.812;2023-02-26T02:48:42;21.80;88.10
63313;DHT22;49442;45.640;13.812;2023-02-26T02:51:16;21.80;87.50
63313;DHT22;49442;45.640;13.812;2023-02-26T02:54:05;21.80;87.80
63313;DHT22;49442;45.640;13.812;2023-02-26T02:56:41;21.80;87.50
63313;DHT22;49442;45.640;13.812;2023-02-26T02:59:21;21.80;87.30
63313;DHT22;49442;45.640;13.812;2023-02-26T03:01:51;21.80;87.90
63313;DHT22;49442;45.640;13.812;2023-02-26T03:04:18;21.80;88.00
63313;DHT22;49442;45.640;13.812;2023-02-26T03:06:44;21.80;88.10
63313;DHT22;49442;45.640;13.812;2023-02-26T03:09:14;21.80;87.40
63313;DHT22;49442;45.640;13.812;2023-02-26T03:11:41;21.80;87.30
63313;DHT22;49442;45.640;13.812;2023-02-26T03:14:07;21.70;87.20
63313;DHT22;49442;45.640;13.812;2023-02-26T03:17:02;21.70;87.30
63313;DHT22;49442;45.640;13.812;2023-02-26T03:19:37;21.70;87.80
63313;DHT22;49442;45.640;13.812;2023-02-26T03:24:50;21.70;87.00
63313;DHT22;49442;45.640;13.812;2023-02-26T03:27:28;21.70;87.30
63313;DHT22;49442;45.640;13.812;2023-02-26T03:30:04;21.70;87.50
63313;DHT22;49442;45.640;13.812;2023-02-26T03:35:13;21.60;88.00
63313;DHT22;49442;45.640;13.812;2023-02-26T03:37:44;21.60;88.20
63313;DHT22;49442;45.640;13.812;2023-02-26T03:40:17;21.70;88.00
63313;DHT22;49442;45.640;13.812;2023-02-26T03:42:48;21.60;87.00
63313;DHT22;49442;45.640;13.812;2023-02-26T03:45:26;21.60;87.60
63313;DHT22;49442;45.640;13.812;2023-02-26T03:47:53;21.60;87.40
63313;DHT22;49442;45.640;13.812;2023-02-26T03:50:34;21.60;87.30
63313;DHT22;49442;45.640;13.812;2023-02-26T03:53:05;21.50;87.30
63313;DHT22;49442;45.640;13.812;2023-02-26T03:55:54;21.60;87.20
63313;DHT22;49442;45.640;13.812;2023-02-26T03:58:22;21.50;86.70
63313;DHT22;49442;45.640;13.812;2023-02-26T04:00:53;21.50;87.60
63313;DHT22;49442;45.640;13.812;2023-02-26T04:04:04;21.50;87.30
63313;DHT22;49442;45.640;13.812;2023-02-26T04:06:33;21.50;87.10
63313;DHT22;49442;45.640;13.812;2023-02-26T04:08:59;21.50;87.20
63313;DHT22;49442;45.640;13.812;2023-02-26T04:11:26;21.50;86.90
63313;DHT22;49442;45.640;13.812;2023-02-26T04:13:52;21.50;87.00
63313;DHT22;49442;45.640;13.812;2023-02-26T04:16:18;21.50;87.30
63313;DHT22;49442;45.640;13.812;2023-02-26T04:18:43;21.50;86.90
63313;DHT22;49442;45.640;13.812;2023-02-26T04:21:13;21.40;86.30
63313;DHT22;49442;45.640;13.812;2023-02-26T04:23:40;21.40;87.30
63313;DHT22;49442;45.640;13.812;2023-02-26T04:26:06;21.40;87.30
63313;DHT22;49442;45.640;13.812;2023-02-26T04:28:31;21.40;87.20
63313;DHT22;49442;45.640;13.812;2023-02-26T04:30:57;21.40;86.50
63313;DHT22;49442;45.640;13.812;2023-02-26T04:33:24;21.40;85.90
63313;DHT22;49442;45.640;13.812;2023-02-26T04:35:51;21.40;86.50
63313;DHT22;49442;45.640;13.812;2023-02-26T04:38:16;21.40;87.20
63313;DHT22;49442;45.640;13.812;2023-02-26T04:40:42;21.40;86.60
63313;DHT22;49442;45.640;13.812;2023-02-26T04:43:08;21.30;86.60
63313;DHT22;49442;45.640;13.812;2023-02-26T04:45:34;21.30;87.00
63313;DHT22;49442;45.640;13.812;2023-02-26T04:47:59;21.30;86.80
63313;DHT22;49442;45.640;13.812;2023-02-26T04:50:25;21.30;86.70
63313;DHT22;49442;45.640;13.812;2023-02-26T04:52:50;21.30;86.90
63313;DHT22;49442;45.640;13.812;2023-02-26T04:55:16;21.30;86.90
63313;DHT22;49442;45.640;13.812;2023-02-26T04:57:42;21.30;87.60
63313;DHT22;49442;45.640;13.812;2023-02-26T05:00:08;21.30;86.80
63313;DHT22;49442;45.640;13.812;2023-02-26T05:02:34;21.20;85.20
63313;DHT22;49442;45.640;13.812;2023-02-26T05:05:00;21.20;85.70
63313;DHT22;49442;45.640;13.812;2023-02-26T05:07:25;21.20;87.10
63313;DHT22;49442;45.640;13.812;2023-02-26T05:09:51;21.20;86.90
63313;DHT22;49442;45.640;13.812;2023-02-26T05:12:17;21.20;86.20
63313;DHT22;49442;45.640;13.812;2023-02-26T05:14:42;21.20;86.60
63313;DHT22;49442;45.640;13.812;2023-02-26T05:17:08;21.20;86.20
63313;DHT22;49442;45.640;13.812;2023-02-26T05:19:34;21.20;85.80
63313;DHT22;49442;45.640;13.812;2023-02-26T05:22:00;21.20;86.60
63313;DHT22;49442;45.640;13.812;2023-02-26T05:24:25;21.20;86.00
63313;DHT22;49442;45.640;13.812;2023-02-26T05:26:51;21.10;86.40
63313;DHT22;49442;45.640;13.812;2023-02-26T05:29:16;21.10;86.30
63313;DHT22;49442;45.640;13.812;2023-02-26T05:31:42;21.10;85.40
63313;DHT22;49442;45.640;13.812;2023-02-26T05:34:08;21.10;86.10
63313;DHT22;49442;45.640;13.812;2023-02-26T05:36:34;21.10;86.00
63313;DHT22;49442;45.640;13.812;2023-02-26T05:38:59;21.10;85.90
63313;DHT22;49442;45.640;13.812;2023-02-26T05:41:25;21.10;85.40
63313;DHT22;49442;45.640;13.812;2023-02-26T05:43:50;21.10;85.90
63313;DHT22;49442;45.640;13.812;2023-02-26T05:46:16;21.10;85.90
63313;DHT22;49442;45.640;13.812;2023-02-26T05:48:42;21.10;85.60
63313;DHT22;49442;45.640;13.812;2023-02-26T05:51:07;21.00;85.70
63313;DHT22;49442;45.640;13.812;2023-02-26T05:53:34;21.00;85.60
63313;DHT22;49442;45.640;13.812;2023-02-26T05:56:00;21.00;84.90
63313;DHT22;49442;45.640;13.812;2023-02-26T05:58:25;21.00;85.50
63313;DHT22;49442;45.640;13.812;2023-02-26T06:00:51;21.00;85.70
63313;DHT22;49442;45.640;13.812;2023-02-26T06:03:16;21.00;85.30
63313;DHT22;49442;45.640;13.812;2023-02-26T06:05:42;21.00;85.20
63313;DHT22;49442;45.640;13.812;2023-02-26T06:24:38;21.00;85.60
63313;DHT22;49442;45.640;13.812;2023-02-26T06:27:03;21.00;85.70
63313;DHT22;49442;45.640;13.812;2023-02-26T06:29:29;20.90;86.00
63313;DHT22;49442;45.640;13.812;2023-02-26T06:31:54;21.00;86.00
63313;DHT22;49442;45.640;13.812;2023-02-26T06:34:20;21.00;86.50
63313;DHT22;49442;45.640;13.812;2023-02-26T06:36:47;21.00;86.10
63313;DHT22;49442;45.640;13.812;2023-02-26T06:39:12;21.10;86.20
63313;DHT22;49442;45.640;13.812;2023-02-26T06:41:38;21.10;85.50
63313;DHT22;49442;45.640;13.812;2023-02-26T06:44:04;21.20;86.70
63313;DHT22;49442;45.640;13.812;2023-02-26T06:46:30;21.30;86.60
63313;DHT22;49442;45.640;13.812;2023-02-26T06:48:55;21.30;86.80
63313;DHT22;49442;45.640;13.812;2023-02-26T06:51:21;21.40;86.20
63313;DHT22;49442;45.640;13.812;2023-02-26T06:53:47;21.40;85.70
63313;DHT22;49442;45.640;13.812;2023-02-26T06:56:13;21.50;86.20
63313;DHT22;49442;45.640;13.812;2023-02-26T06:58:38;21.50;85.80
63313;DHT22;49442;45.640;13.812;2023-02-26T07:01:04;21.50;86.10
63313;DHT22;49442;45.640;13.812;2023-02-26T07:03:30;21.50;85.50
63313;DHT22;49442;45.640;13.812;2023-02-26T07:05:56;21.60;85.80
63313;DHT22;49442;45.640;13.812;2023-02-26T07:08:22;21.60;85.50
63313;DHT22;49442;45.640;13.812;2023-02-26T07:10:49;21.60;85.40
63313;DHT22;49442;45.640;13.812;2023-02-26T07:13:15;21.70;85.20
63313;DHT22;49442;45.640;13.812;2023-02-26T07:15:41;21.70;85.90
63313;DHT22;49442;45.640;13.812;2023-02-26T07:18:07;21.70;85.70
63313;DHT22;49442;45.640;13.812;2023-02-26T07:20:33;21.70;84.90
63313;DHT22;49442;45.640;13.812;2023-02-26T07:22:59;21.80;85.20
63313;DHT22;49442;45.640;13.812;2023-02-26T07:25:24;21.80;85.20
63313;DHT22;49442;45.640;13.812;2023-02-26T07:27:50;21.80;85.60
63313;DHT22;49442;45.640;13.812;2023-02-26T07:30:16;21.70;82.20
63313;DHT22;49442;45.640;13.812;2023-02-26T07:32:42;21.80;80.90
63313;DHT22;49442;45.640;13.812;2023-02-26T07:35:08;21.80;82.10
63313;DHT22;49442;45.640;13.812;2023-02-26T07:37:34;21.80;80.70
63313;DHT22;49442;45.640;13.812;2023-02-26T07:40:00;21.80;78.10
63313;DHT22;49442;45.640;13.812;2023-02-26T07:42:26;21.70;79.60
63313;DHT22;49442;45.640;13.812;2023-02-26T07:44:52;21.70;79.10
63313;DHT22;49442;45.640;13.812;2023-02-26T07:47:17;21.70;78.90
63313;DHT22;49442;45.640;13.812;2023-02-26T07:49:43;21.70;78.70
63313;DHT22;49442;45.640;13.812;2023-02-26T07:52:08;21.70;78.90
63313;DHT22;49442;45.640;13.812;2023-02-26T07:54:35;21.70;78.10
63313;DHT22;49442;45.640;13.812;2023-02-26T07:57:01;21.70;78.40
63313;DHT22;49442;45.640;13.812;2023-02-26T07:59:27;21.70;79.10
63313;DHT22;49442;45.640;13.812;2023-02-26T08:01:53;21.70;78.80
63313;DHT22;49442;45.640;13.812;2023-02-26T08:04:18;21.70;78.90
63313;DHT22;49442;45.640;13.812;2023-02-26T08:06:44;21.70;77.00
63313;DHT22;49442;45.640;13.812;2023-02-26T08:09:10;21.70;76.90
63313;DHT22;49442;45.640;13.812;2023-02-26T08:11:36;21.70;78.20
63313;DHT22;49442;45.640;13.812;2023-02-26T08:14:05;21.70;79.10
63313;DHT22;49442;45.640;13.812;2023-02-26T08:16:31;21.70;80.00
63313;DHT22;49442;45.640;13.812;2023-02-26T08:18:57;21.70;78.90
63313;DHT22;49442;45.640;13.812;2023-02-26T08:21:23;21.70;78.20
63313;DHT22;49442;45.640;13.812;2023-02-26T08:23:49;21.80;78.80
63313;DHT22;49442;45.640;13.812;2023-02-26T08:26:16;21.80;78.30
63313;DHT22;49442;45.640;13.812;2023-02-26T08:28:42;21.80;79.20
63313;DHT22;49442;45.640;13.812;2023-02-26T08:31:08;21.80;77.80
63313;DHT22;49442;45.640;13.812;2023-02-26T08:33:34;21.80;77.30
63313;DHT22;49442;45.640;13.812;2023-02-26T08:36:00;21.80;77.60
63313;DHT22;49442;45.640;13.812;2023-02-26T08:38:27;21.80;77.80
63313;DHT22;49442;45.640;13.812;2023-02-26T08:40:54;21.80;78.70
63313;DHT22;49442;45.640;13.812;2023-02-26T08:43:19;21.80;76.70
63313;DHT22;49442;45.640;13.812;2023-02-26T08:45:46;21.80;77.60
63313;DHT22;49442;45.640;13.812;2023-02-26T08:48:12;21.80;76.20
63313;DHT22;49442;45.640;13.812;2023-02-26T08:50:38;21.80;75.90
63313;DHT22;49442;45.640;13.812;2023-02-26T08:53:04;21.80;77.20
63313;DHT22;49442;45.640;13.812;2023-02-26T08:55:30;21.80;76.40
63313;DHT22;49442;45.640;13.812;2023-02-26T08:57:56;21.80;76.70
63313;DHT22;49442;45.640;13.812;2023-02-26T09:00:22;21.80;76.40
63313;DHT22;49442;45.640;13.812;2023-02-26T09:02:48;21.80;77.70
63313;DHT22;49442;45.640;13.812;2023-02-26T09:05:14;21.80;77.50
63313;DHT22;49442;45.640;13.812;2023-02-26T09:07:40;21.80;76.20
63313;DHT22;49442;45.640;13.812;2023-02-26T09:10:07;21.80;76.70
63313;DHT22;49442;45.640;13.812;2023-02-26T09:12:33;21.90;77.60
63313;DHT22;49442;45.640;13.812;2023-02-26T09:15:02;21.90;77.60
63313;DHT22;49442;45.640;13.812;2023-02-26T09:17:29;21.90;76.80
63313;DHT22;49442;45.640;13.812;2023-02-26T09:19:55;21.80;76.70
63313;DHT22;49442;45.640;13.812;2023-02-26T09:22:21;21.90;78.40
63313;DHT22;49442;45.640;13.812;2023-02-26T09:24:47;21.90;76.10
63313;DHT22;49442;45.640;13.812;2023-02-26T09:27:12;21.80;74.50
63313;DHT22;49442;45.640;13.812;2023-02-26T09:29:38;21.70;73.30
63313;DHT22;49442;45.640;13.812;2023-02-26T09:32:04;21.70;73.70
63313;DHT22;49442;45.640;13.812;2023-02-26T09:34:33;21.70;73.70
63313;DHT22;49442;45.640;13.812;2023-02-26T09:36:59;21.60;73.90
63313;DHT22;49442;45.640;13.812;2023-02-26T09:39:25;21.70;73.20
63313;DHT22;49442;45.640;13.812;2023-02-26T09:41:53;21.70;73.60
63313;DHT22;49442;45.640;13.812;2023-02-26T09:44:23;21.70;73.20
63313;DHT22;49442;45.640;13.812;2023-02-26T09:54:47;21.80;73.20
63313;DHT22;49442;45.640;13.812;2023-02-26T09:59:52;21.80;73.40
63313;DHT22;49442;45.640;13.812;2023-02-26T10:08:07;21.80;71.10
63313;DHT22;49442;45.640;13.812;2023-02-26T10:13:45;21.80;75.20
63313;DHT22;49442;45.640;13.812;2023-02-26T10:16:18;21.80;73.30
63313;DHT22;49442;45.640;13.812;2023-02-26T10:18:51;21.80;74.20
63313;DHT22;49442;45.640;13.812;2023-02-26T10:21:33;21.80;75.40
63313;DHT22;49442;45.640;13.812;2023-02-26T10:25:05;21.80;73.40
63313;DHT22;49442;45.640;13.812;2023-02-26T10:27:06;21.70;73.70
63313;DHT22;49442;45.640;13.812;2023-02-26T10:30:08;21.70;72.90
63313;DHT22;49442;45.640;13.812;2023-02-26T10:32:59;21.70;72.80
63313;DHT22;49442;45.640;13.812;2023-02-26T10:35:31;21.60;72.90
63313;DHT22;49442;45.640;13.812;2023-02-26T10:38:04;21.60;73.20
63313;DHT22;49442;45.640;13.812;2023-02-26T10:51:34;21.60;76.60
63313;DHT22;49442;45.640;13.812;2023-02-26T10:56:39;21.50;78.50
63313;DHT22;49442;45.640;13.812;2023-02-26T10:59:05;21.60;80.00
63313;DHT22;49442;45.640;13.812;2023-02-26T11:01:31;21.50;79.10
63313;DHT22;49442;45.640;13.812;2023-02-26T11:04:06;21.60;79.20
63313;DHT22;49442;45.640;13.812;2023-02-26T11:06:37;21.50;77.70
63313;DHT22;49442;45.640;13.812;2023-02-26T11:09:12;21.50;77.10
63313;DHT22;49442;45.640;13.812;2023-02-26T11:11:47;21.50;78.20
63313;DHT22;49442;45.640;13.812;2023-02-26T11:14:15;21.50;79.80
63313;DHT22;49442;45.640;13.812;2023-02-26T11:16:46;21.50;78.80
63313;DHT22;49442;45.640;13.812;2023-02-26T11:19:14;21.50;78.90
63313;DHT22;49442;45.640;13.812;2023-02-26T11:21:43;21.40;78.70
63313;DHT22;49442;45.640;13.812;2023-02-26T11:24:34;21.40;78.20
63313;DHT22;49442;45.640;13.812;2023-02-26T11:27:03;21.40;76.30
63313;DHT22;49442;45.640;13.812;2023-02-26T11:29:56;21.30;75.40
63313;DHT22;49442;45.640;13.812;2023-02-26T11:32:28;21.30;78.00
63313;DHT22;49442;45.640;13.812;2023-02-26T11:34:54;21.30;76.50
63313;DHT22;49442;45.640;13.812;2023-02-26T11:37:22;21.20;77.00
63313;DHT22;49442;45.640;13.812;2023-02-26T11:39:59;21.30;77.80
63313;DHT22;49442;45.640;13.812;2023-02-26T11:42:28;21.30;77.80
63313;DHT22;49442;45.640;13.812;2023-02-26T11:44:54;21.20;77.00
63313;DHT22;49442;45.640;13.812;2023-02-26T11:47:25;21.20;75.90
63313;DHT22;49442;45.640;13.812;2023-02-26T11:50:00;21.10;77.60
63313;DHT22;49442;45.640;13.812;2023-02-26T11:52:40;21.10;76.30
63313;DHT22;49442;45.640;13.812;2023-02-26T11:57:44;21.00;76.00
63313;DHT22;49442;45.640;13.812;2023-02-26T12:00:36;21.00;77.50
63313;DHT22;49442;45.640;13.812;2023-02-26T12:03:16;20.90;77.00
63313;DHT22;49442;45.640;13.812;2023-02-26T12:05:42;20.90;76.10
63313;DHT22;49442;45.640;13.812;2023-02-26T12:08:23;20.90;76.20
63313;DHT22;49442;45.640;13.812;2023-02-26T12:14:04;20.90;76.60
63313;DHT22;49442;45.640;13.812;2023-02-26T12:22:08;20.90;76.30
63313;DHT22;49442;45.640;13.812;2023-02-26T12:28:23;20.80;75.00
63313;DHT22;49442;45.640;13.812;2023-02-26T12:38:35;20.80;75.50
63313;DHT22;49442;45.640;13.812;2023-02-26T12:44:40;20.70;76.60
63313;DHT22;49442;45.640;13.812;2023-02-26T12:49:58;20.70;75.80
63313;DHT22;49442;45.640;13.812;2023-02-26T13:00:58;20.60;75.80
63313;DHT22;49442;45.640;13.812;2023-02-26T13:03:48;20.60;75.50
63313;DHT22;49442;45.640;13.812;2023-02-26T13:15:03;20.60;76.50
63313;DHT22;49442;45.640;13.812;2023-02-26T13:20:16;20.60;75.80
63313;DHT22;49442;45.640;13.812;2023-02-26T13:22:49;20.60;76.70
63313;DHT22;49442;45.640;13.812;2023-02-26T13:25:34;20.60;75.20
63313;DHT22;49442;45.640;13.812;2023-02-26T13:28:04;20.60;76.00
63313;DHT22;49442;45.640;13.812;2023-02-26T13:30:47;20.60;75.50
63313;DHT22;49442;45.640;13.812;2023-02-26T13:33:17;20.50;75.30
63313;DHT22;49442;45.640;13.812;2023-02-26T13:35:44;20.50;75.00
63313;DHT22;49442;45.640;13.812;2023-02-26T13:51:36;20.40;75.60
63313;DHT22;49442;45.640;13.812;2023-02-26T13:54:16;20.40;75.50
63313;DHT22;49442;45.640;13.812;2023-02-26T13:59:48;20.30;75.20
63313;DHT22;49442;45.640;13.812;2023-02-26T14:05:09;20.30;76.00
63313;DHT22;49442;45.640;13.812;2023-02-26T14:10:31;20.30;75.30
63313;DHT22;49442;45.640;13.812;2023-02-26T14:13:18;20.30;76.20
63313;DHT22;49442;45.640;13.812;2023-02-26T14:16:12;20.30;75.60
63313;DHT22;49442;45.640;13.812;2023-02-26T14:24:12;20.20;75.70
63313;DHT22;49442;45.640;13.812;2023-02-26T14:26:45;20.20;75.50
63313;DHT22;49442;45.640;13.812;2023-02-26T14:29:21;20.10;75.50
63313;DHT22;49442;45.640;13.812;2023-02-26T14:34:29;20.20;75.40
63313;DHT22;49442;45.640;13.812;2023-02-26T14:37:02;20.20;76.70
63313;DHT22;49442;45.640;13.812;2023-02-26T14:45:11;20.10;75.90
63313;DHT22;49442;45.640;13.812;2023-02-26T14:47:46;20.10;75.10
63313;DHT22;49442;45.640;13.812;2023-02-26T14:50:18;20.10;75.20
63313;DHT22;49442;45.640;13.812;2023-02-26T14:55:56;20.10;75.60
63313;DHT22;49442;45.640;13.812;2023-02-26T15:03:35;20.00;74.90
63313;DHT22;49442;45.640;13.812;2023-02-26T15:06:25;20.00;76.70
63313;DHT22;49442;45.640;13.812;2023-02-26T15:22:53;20.10;75.30
63313;DHT22;49442;45.640;13.812;2023-02-26T15:25:31;20.00;76.10
63313;DHT22;49442;45.640;13.812;2023-02-26T15:28:00;20.00;76.00
63313;DHT22;49442;45.640;13.812;2023-02-26T15:30:27;20.00;76.10
63313;DHT22;49442;45.640;13.812;2023-02-26T15:33:03;20.00;76.10
63313;DHT22;49442;45.640;13.812;2023-02-26T15:35:30;20.00;75.70
63313;DHT22;49442;45.640;13.812;2023-02-26T15:37:59;20.00;75.30
63313;DHT22;49442;45.640;13.812;2023-02-26T15:40:28;19.90;75.40
63313;DHT22;49442;45.640;13.812;2023-02-26T15:42:56;19.90;75.40
63313;DHT22;49442;45.640;13.812;2023-02-26T15:48:02;19.90;75.10
63313;DHT22;49442;45.640;13.812;2023-02-26T15:50:30;19.90;74.30
63313;DHT22;49442;45.640;13.812;2023-02-26T15:53:02;20.00;74.60
63313;DHT22;49442;45.640;13.812;2023-02-26T15:55:35;20.00;74.00
63313;DHT22;49442;45.640;13.812;2023-02-26T15:58:04;20.10;75.10
63313;DHT22;49442;45.640;13.812;2023-02-26T16:00:33;20.20;75.20
63313;DHT22;49442;45.640;13.812;2023-02-26T16:03:00;20.30;74.70
63313;DHT22;49442;45.640;13.812;2023-02-26T16:05:27;20.40;75.00
63313;DHT22;49442;45.640;13.812;2023-02-26T16:07:53;20.50;73.50
63313;DHT22;49442;45.640;13.812;2023-02-26T16:10:34;20.50;71.60
63313;DHT22;49442;45.640;13.812;2023-02-26T16:13:03;20.50;72.70
63313;DHT22;49442;45.640;13.812;2023-02-26T16:15:36;20.60;73.60
63313;DHT22;49442;45.640;13.812;2023-02-26T16:18:05;20.60;73.40
63313;DHT22;49442;45.640;13.812;2023-02-26T16:20:43;20.70;73.70
63313;DHT22;49442;45.640;13.812;2023-02-26T16:23:22;20.70;72.50
63313;DHT22;49442;45.640;13.812;2023-02-26T16:25:52;20.70;73.10
63313;DHT22;49442;45.640;13.812;2023-02-26T16:28:26;20.70;72.30
63313;DHT22;49442;45.640;13.812;2023-02-26T16:30:53;20.80;72.40
63313;DHT22;49442;45.640;13.812;2023-02-26T16:33:22;20.80;71.90
63313;DHT22;49442;45.640;13.812;2023-02-26T16:36:03;20.80;72.10
63313;DHT22;49442;45.640;13.812;2023-02-26T16:38:59;20.80;72.70
63313;DHT22;49442;45.640;13.812;2023-02-26T16:41:27;20.90;72.10
63313;DHT22;49442;45.640;13.812;2023-02-26T16:43:56;20.90;71.70
63313;DHT22;49442;45.640;13.812;2023-02-26T16:46:45;20.90;71.50
63313;DHT22;49442;45.640;13.812;2023-02-26T16:49:23;20.90;71.30
63313;DHT22;49442;45.640;13.812;2023-02-26T16:51:51;20.90;69.70
63313;DHT22;49442;45.640;13.812;2023-02-26T16:54:40;20.90;72.50
63313;DHT22;49442;45.640;13.812;2023-02-26T16:57:23;21.00;73.10
63313;DHT22;49442;45.640;13.812;2023-02-26T16:59:53;21.00;72.40
63313;DHT22;49442;45.640;13.812;2023-02-26T17:02:38;21.00;72.30
63313;DHT22;49442;45.640;13.812;2023-02-26T17:05:24;21.00;72.60
63313;DHT22;49442;45.640;13.812;2023-02-26T17:10:43;21.10;72.30
63313;DHT22;49442;45.640;13.812;2023-02-26T17:15:45;21.10;71.90
63313;DHT22;49442;45.640;13.812;2023-02-26T17:18:12;21.10;72.70
63313;DHT22;49442;45.640;13.812;2023-02-26T17:20:38;21.10;72.60
63313;DHT22;49442;45.640;13.812;2023-02-26T17:23:06;21.10;71.40
63313;DHT22;49442;45.640;13.812;2023-02-26T17:25:45;21.10;71.30
63313;DHT22;49442;45.640;13.812;2023-02-26T17:28:24;21.10;71.10
63313;DHT22;49442;45.640;13.812;2023-02-26T17:30:50;21.10;71.50
63313;DHT22;49442;45.640;13.812;2023-02-26T17:33:16;21.10;71.70
63313;DHT22;49442;45.640;13.812;2023-02-26T17:35:42;21.20;72.30
63313;DHT22;49442;45.640;13.812;2023-02-26T17:38:13;21.20;71.90
63313;DHT22;49442;45.640;13.812;2023-02-26T17:40:41;21.20;72.30
63313;DHT22;49442;45.640;13.812;2023-02-26T17:43:07;21.20;71.00
63313;DHT22;49442;45.640;13.812;2023-02-26T17:45:35;21.20;70.70
63313;DHT22;49442;45.640;13.812;2023-02-26T17:48:01;21.20;71.70
63313;DHT22;49442;45.640;13.812;2023-02-26T17:50:52;21.20;72.30
63313;DHT22;49442;45.640;13.812;2023-02-26T17:53:19;21.30;72.10
63313;DHT22;49442;45.640;13.812;2023-02-26T17:55:46;21.30;71.80
63313;DHT22;49442;45.640;13.812;2023-02-26T17:58:27;21.30;71.90
63313;DHT22;49442;45.640;13.812;2023-02-26T18:00:54;21.30;70.80
63313;DHT22;49442;45.640;13.812;2023-02-26T18:03:20;21.30;71.30
63313;DHT22;49442;45.640;13.812;2023-02-26T18:05:47;21.30;70.20
63313;DHT22;49442;45.640;13.812;2023-02-26T18:08:32;21.30;71.80
63313;DHT22;49442;45.640;13.812;2023-02-26T18:11:00;21.30;75.20
63313;DHT22;49442;45.640;13.812;2023-02-26T18:13:27;21.30;75.20
63313;DHT22;49442;45.640;13.812;2023-02-26T18:15:53;21.30;76.20
63313;DHT22;49442;45.640;13.812;2023-02-26T18:18:21;21.30;75.20
63313;DHT22;49442;45.640;13.812;2023-02-26T18:20:48;21.40;75.60
63313;DHT22;49442;45.640;13.812;2023-02-26T18:23:13;21.40;75.30
63313;DHT22;49442;45.640;13.812;2023-02-26T18:25:41;21.40;75.50
63313;DHT22;49442;45.640;13.812;2023-02-26T18:28:20;21.40;75.00
63313;DHT22;49442;45.640;13.812;2023-02-26T18:30:47;21.40;74.20
63313;DHT22;49442;45.640;13.812;2023-02-26T18:33:13;21.40;74.20
63313;DHT22;49442;45.640;13.812;2023-02-26T18:35:43;21.40;74.80
63313;DHT22;49442;45.640;13.812;2023-02-26T18:38:16;21.50;73.60
63313;DHT22;49442;45.640;13.812;2023-02-26T18:40:43;21.50;73.70
63313;DHT22;49442;45.640;13.812;2023-02-26T18:43:10;21.50;74.10
63313;DHT22;49442;45.640;13.812;2023-02-26T18:45:44;21.50;73.80
63313;DHT22;49442;45.640;13.812;2023-02-26T18:48:15;21.50;73.70
63313;DHT22;49442;45.640;13.812;2023-02-26T18:50:42;21.50;73.40
63313;DHT22;49442;45.640;13.812;2023-02-26T18:53:07;21.50;72.90
63313;DHT22;49442;45.640;13.812;2023-02-26T18:55:34;21.50;71.70
63313;DHT22;49442;45.640;13.812;2023-02-26T18:57:59;21.40;71.10
63313;DHT22;49442;45.640;13.812;2023-02-26T19:00:25;21.50;73.00
63313;DHT22;49442;45.640;13.812;2023-02-26T19:02:53;21.40;71.50
63313;DHT22;49442;45.640;13.812;2023-02-26T19:05:19;21.40;72.30
63313;DHT22;49442;45.640;13.812;2023-02-26T19:07:48;21.40;72.20
63313;DHT22;49442;45.640;13.812;2023-02-26T19:10:14;21.50;71.70